Time,TemperatureF,DewpointF,PressureIn,WindDirection,WindDirectionDegrees,WindSpeedMPH,WindSpeedGustMPH,Humidity,HourlyPrecipIn,Conditions,Clouds,dailyrainin,SoftwareType,DateUTC
2013-06-24 00:01:00,69.3,64.2,28.39,NW,315,2.0,3.0,84,0.00,,,0.00,meteohub,2013-06-24 04:01:00,
2013-06-24 00:02:00,69.3,64.2,28.39,NE,45,2.0,3.0,84,0.00,,,0.00,meteohub,2013-06-24 04:02:00,
2013-06-24 00:03:00,69.3,64.2,28.39,NW,315,0.0,3.0,84,0.00,,,0.00,meteohub,2013-06-24 04:03:00,
2013-06-24 00:05:00,69.3,64.6,28.39,SW,225,2.0,3.0,85,0.00,,,0.00,meteohub,2013-06-24 04:05:00,
2013-06-24 00:10:00,69.3,64.6,28.39,South,180,1.0,3.0,85,0.00,,,0.00,meteohub,2013-06-24 04:10:00,
2013-06-24 00:15:00,69.3,64.6,28.39,East,90,2.0,2.0,85,0.00,,,0.00,meteohub,2013-06-24 04:15:00,
2013-06-24 00:20:00,68.9,64.2,28.39,SW,225,0.0,2.0,85,0.00,,,0.00,meteohub,2013-06-24 04:20:00,
2013-06-24 00:25:00,68.7,64.0,28.39,SW,225,1.0,2.0,85,0.00,,,0.00,meteohub,2013-06-24 04:25:00,
2013-06-24 00:30:00,68.7,64.4,28.39,South,180,2.0,2.0,86,0.00,,,0.00,meteohub,2013-06-24 04:30:00,
2013-06-24 00:35:00,68.4,64.4,28.39,SW,225,0.0,2.0,87,0.00,,,0.00,meteohub,2013-06-24 04:35:00,
2013-06-24 00:40:00,68.4,64.4,28.39,SW,225,2.0,2.0,87,0.00,,,0.00,meteohub,2013-06-24 04:40:00,
2013-06-24 00:45:00,68.4,64.4,28.39,East,90,2.0,2.0,87,0.00,,,0.00,meteohub,2013-06-24 04:45:00,
2013-06-24 00:50:00,68.2,64.2,28.39,South,180,2.0,2.0,87,0.00,,,0.00,meteohub,2013-06-24 04:50:00,
2013-06-24 00:56:00,68.0,64.4,28.39,SW,225,2.0,2.0,88,0.00,,,0.00,meteohub,2013-06-24 04:56:00,
2013-06-24 01:02:00,67.8,64.4,28.39,SW,225,0.0,2.0,89,0.00,,,0.00,meteohub,2013-06-24 05:02:00,
2013-06-24 01:07:00,67.8,64.4,28.39,NW,315,1.0,2.0,89,0.00,,,0.00,meteohub,2013-06-24 05:07:00,
2013-06-24 01:12:00,67.8,64.4,28.39,West,270,1.0,2.0,89,0.00,,,0.00,meteohub,2013-06-24 05:12:00,
2013-06-24 01:17:00,67.8,64.4,28.39,West,270,0.0,2.0,89,0.00,,,0.00,meteohub,2013-06-24 05:17:00,
2013-06-24 01:22:00,67.8,64.8,28.39,East,90,0.0,1.0,90,0.00,,,0.00,meteohub,2013-06-24 05:22:00,
2013-06-24 01:27:00,67.6,64.6,28.39,SW,225,0.0,1.0,90,0.00,,,0.00,meteohub,2013-06-24 05:27:00,
2013-06-24 01:32:00,67.5,64.4,28.39,East,90,2.0,0.0,90,0.00,,,0.00,meteohub,2013-06-24 05:32:00,
2013-06-24 01:38:00,67.3,64.6,28.39,West,270,0.0,2.0,91,0.00,,,0.00,meteohub,2013-06-24 05:38:00,
2013-06-24 01:43:00,66.9,64.2,28.39,SE,135,2.0,3.0,91,0.00,,,0.00,meteohub,2013-06-24 05:43:00,
2013-06-24 01:49:00,66.9,64.2,28.39,SW,225,0.0,3.0,91,0.00,,,0.00,meteohub,2013-06-24 05:49:00,
2013-06-24 01:54:00,66.7,64.0,28.38,SW,225,0.0,3.0,91,0.00,,,0.00,meteohub,2013-06-24 05:54:00,
2013-06-24 01:59:00,66.6,63.9,28.38,NE,45,0.0,3.0,91,0.00,,,0.00,meteohub,2013-06-24 05:59:00,
2013-06-24 02:05:00,66.4,63.7,28.38,East,90,1.0,2.0,91,0.00,,,0.00,meteohub,2013-06-24 06:05:00,
2013-06-24 02:10:00,66.0,63.7,28.38,SW,225,1.0,2.0,92,0.00,,,0.00,meteohub,2013-06-24 06:10:00,
2013-06-24 02:16:00,66.0,63.9,28.38,West,270,0.0,2.0,93,0.00,,,0.00,meteohub,2013-06-24 06:16:00,
2013-06-24 02:21:00,65.8,63.7,28.39,East,90,1.0,2.0,93,0.00,,,0.00,meteohub,2013-06-24 06:21:00,
2013-06-24 02:27:00,65.7,63.5,28.39,SE,135,1.0,1.0,93,0.00,,,0.00,meteohub,2013-06-24 06:27:00,
2013-06-24 02:32:00,65.5,63.3,28.38,SW,225,2.0,2.0,93,0.00,,,0.00,meteohub,2013-06-24 06:32:00,
2013-06-24 02:37:00,65.5,63.3,28.38,North,0,1.0,2.0,93,0.00,,,0.00,meteohub,2013-06-24 06:37:00,
2013-06-24 02:42:00,65.1,63.0,28.38,North,0,0.0,2.0,93,0.00,,,0.00,meteohub,2013-06-24 06:42:00,
2013-06-24 02:47:00,64.9,62.8,28.38,SW,225,1.0,2.0,93,0.00,,,0.00,meteohub,2013-06-24 06:47:00,
2013-06-24 02:52:00,64.9,62.8,28.38,East,90,0.0,2.0,93,0.00,,,0.00,meteohub,2013-06-24 06:52:00,
2013-06-24 02:58:00,64.8,62.6,28.38,North,0,0.0,1.0,93,0.00,,,0.00,meteohub,2013-06-24 06:58:00,
2013-06-24 03:03:00,64.6,62.4,28.38,South,180,0.0,1.0,93,0.00,,,0.00,meteohub,2013-06-24 07:03:00,
2013-06-24 03:08:00,64.4,62.4,28.38,South,180,0.0,1.0,93,0.00,,,0.00,meteohub,2013-06-24 07:08:00,
2013-06-24 03:14:00,64.4,62.6,28.38,South,180,0.0,1.0,94,0.00,,,0.00,meteohub,2013-06-24 07:14:00,
2013-06-24 03:19:00,64.2,62.2,28.38,SW,225,0.0,2.0,93,0.00,,,0.00,meteohub,2013-06-24 07:19:00,
2013-06-24 03:25:00,64.2,62.2,28.38,NW,315,2.0,2.0,93,0.00,,,0.00,meteohub,2013-06-24 07:25:00,
2013-06-24 03:30:00,64.0,62.2,28.38,NE,45,2.0,2.0,94,0.00,,,0.00,meteohub,2013-06-24 07:30:00,
2013-06-24 03:36:00,63.9,62.1,28.38,NE,45,0.0,2.0,94,0.00,,,0.00,meteohub,2013-06-24 07:36:00,
2013-06-24 03:41:00,63.9,62.1,28.37,NE,45,0.0,2.0,94,0.00,,,0.00,meteohub,2013-06-24 07:41:00,
2013-06-24 03:47:00,63.7,61.9,28.37,West,270,0.0,2.0,94,0.00,,,0.00,meteohub,2013-06-24 07:47:00,
2013-06-24 03:52:00,63.7,61.9,28.37,NE,45,0.0,2.0,94,0.00,,,0.00,meteohub,2013-06-24 07:52:00,
2013-06-24 03:57:00,63.5,61.7,28.38,SW,225,0.0,2.0,94,0.00,,,0.00,meteohub,2013-06-24 07:57:00,
2013-06-24 04:02:00,63.5,61.7,28.38,North,0,0.0,1.0,94,0.00,,,0.00,meteohub,2013-06-24 08:02:00,
2013-06-24 04:07:00,63.5,61.7,28.37,North,0,0.0,1.0,94,0.00,,,0.00,meteohub,2013-06-24 08:07:00,
2013-06-24 04:13:00,63.3,61.5,28.38,North,0,0.0,1.0,94,0.00,,,0.00,meteohub,2013-06-24 08:13:00,
2013-06-24 04:18:00,63.3,61.5,28.38,NW,315,1.0,2.0,94,0.00,,,0.00,meteohub,2013-06-24 08:18:00,
2013-06-24 04:23:00,63.3,61.9,28.37,NW,315,0.0,2.0,95,0.00,,,0.00,meteohub,2013-06-24 08:23:00,
2013-06-24 04:29:00,63.3,61.9,28.37,NE,45,1.0,2.0,95,0.00,,,0.00,meteohub,2013-06-24 08:29:00,
2013-06-24 04:34:00,63.3,61.9,28.37,NW,315,2.0,2.0,95,0.00,,,0.00,meteohub,2013-06-24 08:34:00,
2013-06-24 04:39:00,63.3,61.9,28.37,NE,45,1.0,2.0,95,0.00,,,0.00,meteohub,2013-06-24 08:39:00,
2013-06-24 04:45:00,63.3,61.9,28.37,East,90,0.0,2.0,95,0.00,,,0.00,meteohub,2013-06-24 08:45:00,
2013-06-24 04:50:00,63.5,62.4,28.37,SE,135,1.0,2.0,96,0.00,,,0.00,meteohub,2013-06-24 08:50:00,
2013-06-24 04:55:00,63.5,62.4,28.38,SW,225,1.0,2.0,96,0.00,,,0.00,meteohub,2013-06-24 08:55:00,
2013-06-24 05:00:00,63.5,62.4,28.37,SW,225,1.0,2.0,96,0.00,,,0.00,meteohub,2013-06-24 09:00:00,
2013-06-24 05:06:00,63.7,62.6,28.38,West,270,0.0,2.0,96,0.00,,,0.00,meteohub,2013-06-24 09:06:00,
2013-06-24 05:11:00,63.7,62.6,28.37,SE,135,2.0,2.0,96,0.00,,,0.00,meteohub,2013-06-24 09:11:00,
2013-06-24 05:16:00,63.7,62.8,28.37,SE,135,0.0,2.0,97,0.00,,,0.00,meteohub,2013-06-24 09:16:00,
2013-06-24 05:21:00,63.7,62.8,28.38,East,90,0.0,2.0,97,0.00,,,0.00,meteohub,2013-06-24 09:21:00,
2013-06-24 05:26:00,63.7,62.8,28.38,NE,45,0.0,2.0,97,0.00,,,0.00,meteohub,2013-06-24 09:26:00,
2013-06-24 05:31:00,63.7,62.8,28.38,NE,45,0.0,1.0,97,0.00,,,0.00,meteohub,2013-06-24 09:31:00,
2013-06-24 05:37:00,63.9,63.0,28.38,West,270,2.0,2.0,97,0.00,,,0.00,meteohub,2013-06-24 09:37:00,
2013-06-24 05:42:00,63.9,63.0,28.37,West,270,0.0,2.0,97,0.00,,,0.00,meteohub,2013-06-24 09:42:00,
2013-06-24 05:47:00,63.9,63.0,28.38,SE,135,0.0,2.0,97,0.00,,,0.00,meteohub,2013-06-24 09:47:00,
2013-06-24 05:52:00,64.0,63.1,28.38,SE,135,0.0,2.0,97,0.00,,,0.00,meteohub,2013-06-24 09:52:00,
2013-06-24 05:57:00,64.2,63.3,28.38,East,90,1.0,0.0,97,0.00,,,0.00,meteohub,2013-06-24 09:57:00,
2013-06-24 06:02:00,64.4,63.5,28.38,East,90,0.0,1.0,97,0.00,,,0.00,meteohub,2013-06-24 10:02:00,
2013-06-24 06:07:00,64.4,63.5,28.38,East,90,0.0,1.0,97,0.00,,,0.00,meteohub,2013-06-24 10:07:00,
2013-06-24 06:13:00,64.6,63.7,28.38,East,90,0.0,1.0,97,0.00,,,0.00,meteohub,2013-06-24 10:13:00,
2013-06-24 06:18:00,64.6,63.7,28.38,NW,315,2.0,2.0,97,0.00,,,0.00,meteohub,2013-06-24 10:18:00,
2013-06-24 06:23:00,64.8,63.9,28.38,SE,135,1.0,2.0,97,0.00,,,0.00,meteohub,2013-06-24 10:23:00,
2013-06-24 06:28:00,64.8,63.9,28.38,East,90,2.0,2.0,97,0.00,,,0.00,meteohub,2013-06-24 10:28:00,
2013-06-24 06:34:00,64.8,63.9,28.38,SW,225,0.0,2.0,97,0.00,,,0.00,meteohub,2013-06-24 10:34:00,
2013-06-24 06:39:00,64.9,64.0,28.39,East,90,0.0,2.0,97,0.00,,,0.00,meteohub,2013-06-24 10:39:00,
2013-06-24 06:44:00,65.1,64.2,28.38,SW,225,0.0,2.0,97,0.00,,,0.00,meteohub,2013-06-24 10:44:00,
2013-06-24 06:50:00,65.3,64.4,28.39,SW,225,0.0,2.0,97,0.00,,,0.00,meteohub,2013-06-24 10:50:00,
2013-06-24 06:55:00,65.5,64.2,28.39,NE,45,1.0,2.0,96,0.00,,,0.00,meteohub,2013-06-24 10:55:00,
2013-06-24 07:00:00,65.7,64.4,28.39,NW,315,0.0,1.0,96,0.00,,,0.00,meteohub,2013-06-24 11:00:00,
2013-06-24 07:05:00,65.7,64.4,28.40,North,0,1.0,1.0,96,0.00,,,0.00,meteohub,2013-06-24 11:05:00,
2013-06-24 07:10:00,66.0,64.8,28.40,West,270,1.0,2.0,96,0.00,,,0.00,meteohub,2013-06-24 11:10:00,
2013-06-24 07:16:00,66.4,64.9,28.40,West,270,0.0,2.0,95,0.00,,,0.00,meteohub,2013-06-24 11:16:00,
2013-06-24 07:22:00,66.9,65.5,28.40,West,270,0.0,2.0,95,0.00,,,0.00,meteohub,2013-06-24 11:22:00,
2013-06-24 07:27:00,67.5,66.0,28.40,NW,315,2.0,2.0,95,0.00,,,0.00,meteohub,2013-06-24 11:27:00,
2013-06-24 07:32:00,68.2,66.4,28.40,West,270,2.0,3.0,94,0.00,,,0.00,meteohub,2013-06-24 11:32:00,
2013-06-24 07:37:00,68.9,67.1,28.40,NE,45,2.0,3.0,94,0.00,,,0.00,meteohub,2013-06-24 11:37:00,
2013-06-24 07:42:00,69.4,67.1,28.40,North,0,2.0,4.0,92,0.00,,,0.00,meteohub,2013-06-24 11:42:00,
2013-06-24 07:48:00,69.6,67.3,28.40,North,0,2.0,4.0,92,0.00,,,0.00,meteohub,2013-06-24 11:48:00,
2013-06-24 07:53:00,70.7,66.6,28.40,NW,315,3.0,4.0,87,0.00,,,0.00,meteohub,2013-06-24 11:53:00,
2013-06-24 07:59:00,71.4,66.4,28.40,West,270,0.0,4.0,84,0.00,,,0.00,meteohub,2013-06-24 11:59:00,
2013-06-24 08:04:00,71.6,66.2,28.40,North,0,2.0,4.0,83,0.00,,,0.00,meteohub,2013-06-24 12:04:00,
2013-06-24 08:09:00,72.0,66.2,28.40,North,0,2.0,4.0,82,0.00,,,0.00,meteohub,2013-06-24 12:09:00,
2013-06-24 08:15:00,72.7,66.2,28.40,North,0,2.0,4.0,80,0.00,,,0.00,meteohub,2013-06-24 12:15:00,
2013-06-24 08:20:00,73.4,66.9,28.40,North,0,2.0,4.0,80,0.00,,,0.00,meteohub,2013-06-24 12:20:00,
2013-06-24 08:25:00,74.8,67.8,28.40,WNW,293,2.0,4.0,79,0.00,,,0.00,meteohub,2013-06-24 12:25:00,
2013-06-24 08:30:00,75.4,67.3,28.40,NW,315,2.0,3.0,76,0.00,,,0.00,meteohub,2013-06-24 12:30:00,
2013-06-24 08:36:00,75.6,67.8,28.40,North,0,2.0,3.0,77,0.00,,,0.00,meteohub,2013-06-24 12:36:00,
2013-06-24 08:41:00,75.6,66.7,28.40,NE,45,4.0,5.0,74,0.00,,,0.00,meteohub,2013-06-24 12:41:00,
2013-06-24 08:47:00,75.4,66.2,28.40,North,0,3.0,6.0,73,0.00,,,0.00,meteohub,2013-06-24 12:47:00,
2013-06-24 08:52:00,75.6,66.4,28.40,North,0,2.0,6.0,73,0.00,,,0.00,meteohub,2013-06-24 12:52:00,
2013-06-24 08:57:00,75.6,66.7,28.40,NW,315,2.0,6.0,74,0.00,,,0.00,meteohub,2013-06-24 12:57:00,
2013-06-24 09:02:00,75.7,66.9,28.40,North,0,3.0,4.0,74,0.00,,,0.00,meteohub,2013-06-24 13:02:00,
2013-06-24 09:07:00,75.7,66.9,28.40,NW,315,2.0,4.0,74,0.00,,,0.00,meteohub,2013-06-24 13:07:00,
2013-06-24 09:12:00,76.1,66.7,28.40,North,0,4.0,6.0,73,0.00,,,0.00,meteohub,2013-06-24 13:12:00,
2013-06-24 09:17:00,76.5,66.7,28.40,NNW,338,6.0,7.0,72,0.00,,,0.00,meteohub,2013-06-24 13:17:00,
2013-06-24 09:23:00,76.6,66.6,28.40,West,270,4.0,10.0,71,0.00,,,0.00,meteohub,2013-06-24 13:23:00,
2013-06-24 09:28:00,77.0,66.9,28.40,North,0,5.0,10.0,71,0.00,,,0.00,meteohub,2013-06-24 13:28:00,
2013-06-24 09:33:00,77.4,67.3,28.39,North,0,9.0,10.0,71,0.00,,,0.00,meteohub,2013-06-24 13:33:00,
2013-06-24 09:38:00,77.5,66.9,28.39,NW,315,4.0,9.0,70,0.00,,,0.00,meteohub,2013-06-24 13:38:00,
2013-06-24 09:43:00,77.9,67.3,28.39,NE,45,4.0,9.0,70,0.00,,,0.00,meteohub,2013-06-24 13:43:00,
2013-06-24 09:49:00,78.4,66.9,28.39,North,0,6.0,9.0,68,0.00,,,0.00,meteohub,2013-06-24 13:49:00,
2013-06-24 09:54:00,78.4,67.5,28.39,NW,315,7.0,10.0,69,0.00,,,0.00,meteohub,2013-06-24 13:54:00,
2013-06-24 10:00:00,78.4,66.6,28.38,West,270,8.0,10.0,67,0.00,,,0.00,meteohub,2013-06-24 14:00:00,
2013-06-24 10:05:00,79.0,66.6,28.38,North,0,8.0,10.0,66,0.00,,,0.00,meteohub,2013-06-24 14:05:00,
2013-06-24 10:10:00,78.8,65.7,28.38,North,0,7.0,13.0,64,0.00,,,0.00,meteohub,2013-06-24 14:10:00,
2013-06-24 10:16:00,79.2,65.5,28.39,North,0,7.0,13.0,63,0.00,,,0.00,meteohub,2013-06-24 14:16:00,
2013-06-24 10:22:00,80.1,66.4,28.39,NE,45,10.0,13.0,63,0.00,,,0.00,meteohub,2013-06-24 14:22:00,
2013-06-24 10:27:00,81.7,66.9,28.39,NE,45,6.0,13.0,61,0.00,,,0.00,meteohub,2013-06-24 14:27:00,
2013-06-24 10:32:00,82.2,66.9,28.38,North,0,8.0,10.0,60,0.00,,,0.00,meteohub,2013-06-24 14:32:00,
2013-06-24 10:37:00,82.4,66.2,28.39,North,0,8.0,10.0,58,0.00,,,0.00,meteohub,2013-06-24 14:37:00,
2013-06-24 10:42:00,81.9,65.7,28.38,North,0,5.0,11.0,58,0.00,,,0.00,meteohub,2013-06-24 14:42:00,
2013-06-24 10:47:00,81.7,66.4,28.38,NE,45,5.0,11.0,60,0.00,,,0.00,meteohub,2013-06-24 14:47:00,
2013-06-24 10:52:00,82.0,66.4,28.39,North,0,6.0,11.0,59,0.00,,,0.00,meteohub,2013-06-24 14:52:00,
2013-06-24 10:57:00,82.0,66.7,28.38,SW,225,4.0,9.0,60,0.00,,,0.00,meteohub,2013-06-24 14:57:00,
2013-06-24 11:02:00,82.6,66.7,28.39,NW,315,10.0,10.0,59,0.00,,,0.00,meteohub,2013-06-24 15:02:00,
2013-06-24 11:07:00,82.6,66.7,28.39,North,0,8.0,10.0,59,0.00,,,0.00,meteohub,2013-06-24 15:07:00,
2013-06-24 11:12:00,82.2,66.0,28.38,North,0,7.0,11.0,58,0.00,,,0.00,meteohub,2013-06-24 15:12:00,
2013-06-24 11:17:00,82.2,66.4,28.39,North,0,7.0,11.0,59,0.00,,,0.00,meteohub,2013-06-24 15:17:00,
2013-06-24 11:22:00,82.0,65.8,28.38,North,0,8.0,11.0,58,0.00,,,0.00,meteohub,2013-06-24 15:22:00,
2013-06-24 11:27:00,82.2,66.0,28.38,North,0,4.0,11.0,58,0.00,,,0.00,meteohub,2013-06-24 15:27:00,
2013-06-24 11:32:00,82.8,66.0,28.38,North,0,8.0,10.0,57,0.00,,,0.00,meteohub,2013-06-24 15:32:00,
2013-06-24 11:37:00,82.9,65.7,28.39,North,0,9.0,10.0,56,0.00,,,0.00,meteohub,2013-06-24 15:37:00,
2013-06-24 11:43:00,82.2,66.0,28.38,North,0,5.0,11.0,58,0.00,,,0.00,meteohub,2013-06-24 15:43:00,
2013-06-24 11:49:00,82.0,65.8,28.38,NE,45,4.0,11.0,58,0.00,,,0.00,meteohub,2013-06-24 15:49:00,
2013-06-24 11:54:00,82.8,66.0,28.38,WNW,293,7.0,11.0,57,0.00,,,0.00,meteohub,2013-06-24 15:54:00,
2013-06-24 12:00:00,83.5,65.7,28.38,NNE,23,8.0,11.0,55,0.00,,,0.00,meteohub,2013-06-24 16:00:00,
2013-06-24 12:05:00,83.7,65.3,28.38,North,0,4.0,9.0,54,0.00,,,0.00,meteohub,2013-06-24 16:05:00,
2013-06-24 12:11:00,83.5,65.1,28.38,WNW,293,3.0,9.0,54,0.00,,,0.00,meteohub,2013-06-24 16:11:00,
2013-06-24 12:16:00,83.7,64.8,28.38,NW,315,4.0,9.0,53,0.00,,,0.00,meteohub,2013-06-24 16:16:00,
2013-06-24 12:21:00,83.8,65.5,28.38,North,0,5.0,9.0,54,0.00,,,0.00,meteohub,2013-06-24 16:21:00,
2013-06-24 12:27:00,83.7,65.3,28.38,NW,315,2.0,11.0,54,0.00,,,0.00,meteohub,2013-06-24 16:27:00,
2013-06-24 12:32:00,83.3,65.5,28.38,NE,45,2.0,11.0,55,0.00,,,0.00,meteohub,2013-06-24 16:32:00,
2013-06-24 12:37:00,83.3,64.9,28.37,North,0,5.0,11.0,54,0.00,,,0.00,meteohub,2013-06-24 16:37:00,
2013-06-24 12:42:00,84.4,65.3,28.38,NE,45,4.0,8.0,53,0.00,,,0.00,meteohub,2013-06-24 16:42:00,
2013-06-24 12:48:00,86.5,63.9,28.38,North,0,4.0,6.0,47,0.00,,,0.00,meteohub,2013-06-24 16:48:00,
2013-06-24 12:53:00,86.4,64.4,28.37,North,0,7.0,8.0,48,0.00,,,0.00,meteohub,2013-06-24 16:53:00,
2013-06-24 12:58:00,84.7,63.0,28.38,North,0,8.0,11.0,48,0.00,,,0.00,meteohub,2013-06-24 16:58:00,
2013-06-24 13:04:00,83.5,63.5,28.38,North,0,6.0,11.0,51,0.00,,,0.00,meteohub,2013-06-24 17:04:00,
2013-06-24 13:09:00,84.2,64.6,28.37,West,270,7.0,11.0,52,0.00,,,0.00,meteohub,2013-06-24 17:09:00,
2013-06-24 13:14:00,85.3,64.0,28.37,North,0,3.0,9.0,49,0.00,,,0.00,meteohub,2013-06-24 17:14:00,
2013-06-24 13:20:00,84.9,63.0,28.37,NW,315,2.0,9.0,48,0.00,,,0.00,meteohub,2013-06-24 17:20:00,
2013-06-24 13:25:00,84.9,62.4,28.37,North,0,9.0,11.0,47,0.00,,,0.00,meteohub,2013-06-24 17:25:00,
2013-06-24 13:30:00,84.0,61.7,28.36,North,0,16.0,16.0,47,0.00,,,0.00,meteohub,2013-06-24 17:30:00,
2013-06-24 13:35:00,83.3,62.1,28.36,West,270,4.0,16.0,49,0.00,,,0.00,meteohub,2013-06-24 17:35:00,
2013-06-24 13:40:00,83.7,63.0,28.36,NE,45,4.0,16.0,50,0.00,,,0.00,meteohub,2013-06-24 17:40:00,
2013-06-24 13:46:00,85.1,65.5,28.35,North,0,3.0,16.0,52,0.00,,,0.00,meteohub,2013-06-24 17:46:00,
2013-06-24 13:51:00,85.1,63.9,28.35,North,0,5.0,9.0,49,0.00,,,0.00,meteohub,2013-06-24 17:51:00,
2013-06-24 13:57:00,85.3,63.3,28.35,North,0,4.0,9.0,48,0.00,,,0.00,meteohub,2013-06-24 17:57:00,
2013-06-24 14:02:00,85.6,62.4,28.35,NE,45,8.0,9.0,46,0.00,,,0.00,meteohub,2013-06-24 18:02:00,
2013-06-24 14:07:00,85.3,62.2,28.34,NE,45,6.0,11.0,46,0.00,,,0.00,meteohub,2013-06-24 18:07:00,
2013-06-24 14:12:00,85.3,63.3,28.34,NW,315,6.0,11.0,48,0.00,,,0.00,meteohub,2013-06-24 18:12:00,
2013-06-24 14:18:00,85.1,63.1,28.34,ENE,68,4.0,11.0,48,0.00,,,0.00,meteohub,2013-06-24 18:18:00,
2013-06-24 14:24:00,86.0,63.5,28.34,North,0,5.0,8.0,47,0.00,,,0.00,meteohub,2013-06-24 18:24:00,
2013-06-24 14:29:00,85.8,62.1,28.34,NW,315,3.0,8.0,45,0.00,,,0.00,meteohub,2013-06-24 18:29:00,
2013-06-24 14:34:00,84.9,62.4,28.33,North,0,6.0,9.0,47,0.00,,,0.00,meteohub,2013-06-24 18:34:00,
2013-06-24 14:40:00,84.6,63.9,28.33,NNE,23,1.0,9.0,50,0.00,,,0.00,meteohub,2013-06-24 18:40:00,
2013-06-24 14:47:00,86.5,64.6,28.33,North,0,4.0,7.0,48,0.00,,,0.00,meteohub,2013-06-24 18:47:00,
2013-06-24 14:52:00,87.8,64.4,28.32,North,0,2.0,4.0,46,0.00,,,0.00,meteohub,2013-06-24 18:52:00,
2013-06-24 14:58:00,88.0,62.6,28.32,North,0,7.0,7.0,43,0.00,,,0.00,meteohub,2013-06-24 18:58:00,
2013-06-24 15:03:00,86.7,62.8,28.32,NW,315,6.0,7.0,45,0.00,,,0.00,meteohub,2013-06-24 19:03:00,
2013-06-24 15:09:00,84.9,64.2,28.32,East,90,12.0,12.0,50,0.00,,,0.00,meteohub,2013-06-24 19:09:00,
2013-06-24 15:14:00,83.5,63.5,28.32,SW,225,2.0,12.0,51,0.00,,,0.00,meteohub,2013-06-24 19:14:00,
2013-06-24 15:19:00,82.6,63.7,28.32,NW,315,1.0,12.0,53,0.00,,,0.00,meteohub,2013-06-24 19:19:00,
2013-06-24 15:25:00,81.7,64.9,28.32,NW,315,4.0,12.0,57,0.00,,,0.00,meteohub,2013-06-24 19:25:00,
2013-06-24 15:30:00,80.2,65.1,28.31,North,0,3.0,9.0,60,0.00,,,0.00,meteohub,2013-06-24 19:30:00,
2013-06-24 15:36:00,79.3,64.2,28.31,ENE,68,4.0,10.0,60,0.00,,,0.00,meteohub,2013-06-24 19:36:00,
2013-06-24 15:42:00,79.3,63.7,28.31,South,180,2.0,10.0,59,0.00,,,0.00,meteohub,2013-06-24 19:42:00,
2013-06-24 15:47:00,79.3,64.2,28.31,SE,135,3.0,10.0,60,0.00,,,0.00,meteohub,2013-06-24 19:47:00,
2013-06-24 15:52:00,79.3,66.0,28.30,East,90,3.0,5.0,64,0.00,,,0.00,meteohub,2013-06-24 19:52:00,
2013-06-24 15:58:00,79.0,68.0,28.30,South,180,3.0,4.0,69,0.00,,,0.00,meteohub,2013-06-24 19:58:00,
2013-06-24 16:03:00,78.6,66.4,28.30,South,180,2.0,6.0,66,0.00,,,0.00,meteohub,2013-06-24 20:03:00,
2013-06-24 16:08:00,79.0,68.4,28.31,East,90,2.0,6.0,70,0.00,,,0.00,meteohub,2013-06-24 20:08:00,
2013-06-24 16:13:00,78.6,69.3,28.31,East,90,2.0,6.0,73,0.00,,,0.00,meteohub,2013-06-24 20:13:00,
2013-06-24 16:19:00,78.6,68.9,28.30,SE,135,2.0,6.0,72,0.00,,,0.00,meteohub,2013-06-24 20:19:00,
2013-06-24 16:24:00,79.2,65.5,28.30,SW,225,8.0,8.0,63,0.00,,,0.00,meteohub,2013-06-24 20:24:00,
2013-06-24 16:29:00,80.1,62.4,28.31,NE,45,4.0,8.0,55,0.00,,,0.00,meteohub,2013-06-24 20:29:00,
2013-06-24 16:34:00,80.2,63.7,28.32,North,0,4.0,8.0,57,0.00,,,0.00,meteohub,2013-06-24 20:34:00,
2013-06-24 16:39:00,80.6,64.0,28.33,NE,45,0.0,8.0,57,0.00,,,0.00,meteohub,2013-06-24 20:39:00,
2013-06-24 16:45:00,80.6,63.5,28.33,SE,135,2.0,4.0,56,0.00,,,0.00,meteohub,2013-06-24 20:45:00,
2013-06-24 16:50:00,80.2,66.6,28.32,East,90,3.0,4.0,63,0.00,,,0.00,meteohub,2013-06-24 20:50:00,
2013-06-24 16:55:00,80.2,66.6,28.32,SE,135,3.0,4.0,63,0.00,,,0.00,meteohub,2013-06-24 20:55:00,
2013-06-24 17:00:00,80.2,65.5,28.31,NW,315,5.0,5.0,61,0.00,,,0.00,meteohub,2013-06-24 21:00:00,
2013-06-24 17:06:00,81.0,64.8,28.31,NNE,23,4.0,6.0,58,0.00,,,0.00,meteohub,2013-06-24 21:06:00,
2013-06-24 17:11:00,81.5,65.8,28.30,SW,225,4.0,6.0,59,0.00,,,0.00,meteohub,2013-06-24 21:11:00,
2013-06-24 17:16:00,81.9,65.1,28.30,NE,45,4.0,7.0,57,0.00,,,0.00,meteohub,2013-06-24 21:16:00,
2013-06-24 17:22:00,82.4,64.6,28.30,NW,315,3.0,7.0,55,0.00,,,0.00,meteohub,2013-06-24 21:22:00,
2013-06-24 17:27:00,83.3,66.0,28.30,NW,315,4.0,7.0,56,0.00,,,0.00,meteohub,2013-06-24 21:27:00,
2013-06-24 17:32:00,83.3,64.4,28.30,North,0,4.0,7.0,53,0.00,,,0.00,meteohub,2013-06-24 21:32:00,
2013-06-24 17:37:00,83.5,64.6,28.30,North,0,3.0,8.0,53,0.00,,,0.00,meteohub,2013-06-24 21:37:00,
2013-06-24 17:42:00,83.3,64.9,28.31,NW,315,5.0,8.0,54,0.00,,,0.00,meteohub,2013-06-24 21:42:00,
2013-06-24 17:47:00,82.0,63.7,28.32,NW,315,13.0,13.0,54,0.00,,,0.00,meteohub,2013-06-24 21:47:00,
2013-06-24 17:52:00,80.8,64.6,28.32,NW,315,3.0,16.0,58,0.00,,,0.00,meteohub,2013-06-24 21:52:00,
2013-06-24 17:58:00,80.1,64.9,28.33,North,0,8.0,16.0,60,0.00,,,0.00,meteohub,2013-06-24 21:58:00,
2013-06-24 18:03:00,78.1,57.9,28.34,NW,315,10.0,22.0,50,0.00,,,0.00,meteohub,2013-06-24 22:03:00,
2013-06-24 18:08:00,76.8,57.4,28.34,North,0,12.0,22.0,51,0.00,,,0.00,meteohub,2013-06-24 22:08:00,
2013-06-24 18:13:00,74.7,60.8,28.36,North,0,11.0,22.0,62,0.01,,,0.01,meteohub,2013-06-24 22:13:00,
2013-06-24 18:19:00,70.5,59.9,28.35,NW,315,7.0,21.0,69,0.11,,,0.11,meteohub,2013-06-24 22:19:00,
2013-06-24 18:24:00,69.1,60.4,28.36,North,0,5.0,17.0,74,0.12,,,0.12,meteohub,2013-06-24 22:24:00,
2013-06-24 18:29:00,68.4,61.9,28.36,NE,45,8.0,15.0,80,0.12,,,0.12,meteohub,2013-06-24 22:29:00,
2013-06-24 18:35:00,68.0,61.9,28.36,NW,315,2.0,9.0,81,0.12,,,0.12,meteohub,2013-06-24 22:35:00,
2013-06-24 18:40:00,67.6,62.6,28.36,North,0,5.0,9.0,84,0.12,,,0.12,meteohub,2013-06-24 22:40:00,
2013-06-24 18:46:00,67.5,63.1,28.36,NW,315,4.0,9.0,86,0.12,,,0.12,meteohub,2013-06-24 22:46:00,
2013-06-24 18:51:00,67.5,63.5,28.35,SW,225,3.0,6.0,87,0.12,,,0.12,meteohub,2013-06-24 22:51:00,
2013-06-24 18:56:00,67.3,63.3,28.35,North,0,2.0,6.0,87,0.12,,,0.12,meteohub,2013-06-24 22:56:00,
2013-06-24 19:02:00,67.1,63.1,28.35,NW,315,2.0,6.0,87,0.12,,,0.12,meteohub,2013-06-24 23:02:00,
2013-06-24 19:07:00,67.1,63.1,28.35,North,0,4.0,6.0,87,0.12,,,0.12,meteohub,2013-06-24 23:07:00,
2013-06-24 19:12:00,66.9,63.0,28.35,North,0,3.0,6.0,87,0.11,,,0.12,meteohub,2013-06-24 23:12:00,
2013-06-24 19:17:00,66.7,63.1,28.35,NW,315,2.0,4.0,88,0.01,,,0.12,meteohub,2013-06-24 23:17:00,
2013-06-24 19:22:00,66.7,63.1,28.35,North,0,3.0,4.0,88,0.00,,,0.12,meteohub,2013-06-24 23:22:00,
2013-06-24 19:27:00,66.6,63.1,28.35,West,270,2.0,4.0,89,0.00,,,0.12,meteohub,2013-06-24 23:27:00,
2013-06-24 19:33:00,66.4,63.3,28.35,North,0,2.0,4.0,90,0.00,,,0.12,meteohub,2013-06-24 23:33:00,
2013-06-24 19:38:00,66.4,63.3,28.35,North,0,2.0,4.0,90,0.00,,,0.12,meteohub,2013-06-24 23:38:00,
2013-06-24 19:43:00,66.4,63.7,28.35,NW,315,2.0,4.0,91,0.00,,,0.12,meteohub,2013-06-24 23:43:00,
2013-06-24 19:48:00,66.2,63.5,28.34,NW,315,2.0,4.0,91,0.00,,,0.12,meteohub,2013-06-24 23:48:00,
2013-06-24 19:55:00,66.2,63.5,28.34,West,270,2.0,4.0,91,0.00,,,0.12,meteohub,2013-06-24 23:55:00,
2013-06-24 20:00:00,65.7,63.3,28.34,West,270,0.0,3.0,92,0.00,,,0.12,meteohub,2013-06-25 00:00:00,
2013-06-24 20:05:00,65.5,63.3,28.33,SW,225,2.0,3.0,93,0.00,,,0.12,meteohub,2013-06-25 00:05:00,
2013-06-24 20:11:00,65.1,63.0,28.34,SW,225,1.0,2.0,93,0.00,,,0.12,meteohub,2013-06-25 00:11:00,
2013-06-24 20:17:00,64.8,62.6,28.34,West,270,0.0,2.0,93,0.00,,,0.12,meteohub,2013-06-25 00:17:00,
2013-06-24 20:22:00,64.6,62.8,28.35,West,270,0.0,2.0,94,0.00,,,0.12,meteohub,2013-06-25 00:22:00,
2013-06-24 20:27:00,64.4,62.6,28.33,SE,135,1.0,2.0,94,0.00,,,0.12,meteohub,2013-06-25 00:27:00,
2013-06-24 20:32:00,64.2,62.2,28.34,SW,225,1.0,2.0,93,0.00,,,0.12,meteohub,2013-06-25 00:32:00,
2013-06-24 20:37:00,64.0,62.1,28.33,SE,135,4.0,4.0,93,0.00,,,0.12,meteohub,2013-06-25 00:37:00,
2013-06-24 20:43:00,64.0,62.2,28.34,SE,135,1.0,4.0,94,0.00,,,0.12,meteohub,2013-06-25 00:43:00,
2013-06-24 20:48:00,64.0,62.2,28.34,NE,45,1.0,4.0,94,0.00,,,0.12,meteohub,2013-06-25 00:48:00,
2013-06-24 20:53:00,63.9,62.1,28.34,South,180,3.0,4.0,94,0.00,,,0.12,meteohub,2013-06-25 00:53:00,
2013-06-24 21:00:00,63.9,62.1,28.35,SW,225,1.0,3.0,94,0.00,,,0.12,meteohub,2013-06-25 01:00:00,
2013-06-24 21:05:00,63.7,62.2,28.35,East,90,0.0,3.0,95,0.00,,,0.12,meteohub,2013-06-25 01:05:00,
2013-06-24 21:11:00,63.7,62.2,28.35,South,180,2.0,3.0,95,0.00,,,0.12,meteohub,2013-06-25 01:11:00,
2013-06-24 21:16:00,63.7,62.2,28.35,South,180,1.0,3.0,95,0.00,,,0.12,meteohub,2013-06-25 01:16:00,
2013-06-24 21:21:00,63.7,62.2,28.35,East,90,2.0,2.0,95,0.00,,,0.12,meteohub,2013-06-25 01:21:00,
2013-06-24 21:27:00,63.7,62.2,28.35,NW,315,2.0,4.0,95,0.00,,,0.12,meteohub,2013-06-25 01:27:00,
2013-06-24 21:32:00,63.7,62.2,28.36,SW,225,2.0,4.0,95,0.00,,,0.12,meteohub,2013-06-25 01:32:00,
2013-06-24 21:37:00,63.5,62.1,28.36,West,270,0.0,4.0,95,0.00,,,0.12,meteohub,2013-06-25 01:37:00,
2013-06-24 21:43:00,63.3,61.9,28.36,NE,45,3.0,3.0,95,0.00,,,0.12,meteohub,2013-06-25 01:43:00,
2013-06-24 21:48:00,63.1,61.7,28.35,East,90,3.0,4.0,95,0.00,,,0.12,meteohub,2013-06-25 01:48:00,
2013-06-24 21:53:00,63.0,61.5,28.36,NW,315,2.0,4.0,95,0.00,,,0.12,meteohub,2013-06-25 01:53:00,
2013-06-24 21:59:00,62.8,61.3,28.35,SW,225,1.0,4.0,95,0.00,,,0.12,meteohub,2013-06-25 01:59:00,
2013-06-24 22:04:00,62.6,61.2,28.35,SW,225,2.0,3.0,95,0.00,,,0.12,meteohub,2013-06-25 02:04:00,
2013-06-24 22:09:00,62.6,61.2,28.35,SE,135,2.0,3.0,95,0.00,,,0.12,meteohub,2013-06-25 02:09:00,
2013-06-24 22:14:00,62.6,61.5,28.35,SE,135,0.0,2.0,96,0.00,,,0.12,meteohub,2013-06-25 02:14:00,
2013-06-24 22:20:00,62.6,61.5,28.34,SE,135,1.0,2.0,96,0.00,,,0.12,meteohub,2013-06-25 02:20:00,
2013-06-24 22:25:00,62.4,61.5,28.34,South,180,2.0,2.0,97,0.00,,,0.12,meteohub,2013-06-25 02:25:00,
2013-06-24 22:31:00,62.4,61.5,28.34,SE,135,2.0,3.0,97,0.00,,,0.12,meteohub,2013-06-25 02:31:00,
2013-06-24 22:36:00,62.1,61.2,28.34,South,180,2.0,4.0,97,0.00,,,0.12,meteohub,2013-06-25 02:36:00,
2013-06-24 22:42:00,61.9,61.0,28.35,SE,135,1.0,5.0,97,0.00,,,0.12,meteohub,2013-06-25 02:42:00,
2013-06-24 22:47:00,61.9,61.0,28.34,SW,225,1.0,5.0,97,0.00,,,0.12,meteohub,2013-06-25 02:47:00,
2013-06-24 22:52:00,61.9,61.0,28.34,West,270,0.0,5.0,97,0.00,,,0.12,meteohub,2013-06-25 02:52:00,
2013-06-24 22:57:00,61.9,61.0,28.34,South,180,0.0,2.0,97,0.00,,,0.12,meteohub,2013-06-25 02:57:00,
2013-06-24 23:02:00,61.9,61.0,28.35,North,0,2.0,2.0,97,0.00,,,0.12,meteohub,2013-06-25 03:02:00,
2013-06-24 23:07:00,61.9,61.0,28.35,East,90,2.0,2.0,97,0.00,,,0.12,meteohub,2013-06-25 03:07:00,
2013-06-24 23:12:00,61.7,60.8,28.35,SE,135,0.0,2.0,97,0.00,,,0.12,meteohub,2013-06-25 03:12:00,
2013-06-24 23:17:00,61.7,60.8,28.35,SE,135,0.0,2.0,97,0.00,,,0.12,meteohub,2013-06-25 03:17:00,
2013-06-24 23:23:00,61.5,60.6,28.34,SE,135,0.0,2.0,97,0.00,,,0.12,meteohub,2013-06-25 03:23:00,
2013-06-24 23:28:00,61.5,60.6,28.35,SE,135,0.0,0.0,97,0.00,,,0.12,meteohub,2013-06-25 03:28:00,
2013-06-24 23:33:00,61.5,60.6,28.35,SE,135,0.0,0.0,97,0.00,,,0.12,meteohub,2013-06-25 03:33:00,
2013-06-24 23:39:00,61.3,60.4,28.35,SE,135,0.0,0.0,97,0.00,,,0.12,meteohub,2013-06-25 03:39:00,
2013-06-24 23:44:00,61.3,60.4,28.35,SE,135,0.0,0.0,97,0.00,,,0.12,meteohub,2013-06-25 03:44:00,
2013-06-24 23:50:00,61.3,60.4,28.35,SE,135,0.0,0.0,97,0.00,,,0.12,meteohub,2013-06-25 03:50:00,
2013-06-24 23:55:00,61.2,60.3,28.35,NE,45,0.0,0.0,97,0.00,,,0.12,meteohub,2013-06-25 03:55:00,